Time;durP1;ratioP1;P1;durP2;ratioP2;P2;SDS_P1;SDS_P2;PMS_P1;PMS_P2;Temp;Humidity;BMP_temperature;BMP_pressure;BME280_temperature;BME280_humidity;BME280_pressure;Samples;Min_cycle;Max_cycle;Signal;HPM_P1;HPM_P2
2023/02/16 00:00:18;;;;;;;42.42;19.70;;;5.50;99.90;;;;;;5076652;28;20041;-57
2023/02/16 00:02:44;;;;;;;42.53;20.30;;;5.50;99.90;;;;;;5075989;27;20143;-58
2023/02/16 00:05:31;;;;;;;48.25;23.00;;;5.40;99.90;;;;;;5077976;28;20044;-59
2023/02/16 00:07:57;;;;;;;;;;;5.40;99.90;;;;;;5076095;28;20495;-59
2023/02/16 00:10:24;;;;;;;44.90;20.63;;;5.40;99.90;;;;;;5078235;28;20196;-59
2023/02/16 00:15:35;;;;;;;52.55;22.02;;;5.40;99.90;;;;;;5074034;28;20057;-60
2023/02/16 00:18:04;;;;;;;43.40;22.75;;;5.40;99.90;;;;;;5068253;28;20025;-59
2023/02/16 00:20:30;;;;;;;42.80;20.75;;;5.30;99.90;;;;;;5063071;28;20040;-60
2023/02/16 00:22:56;;;;;;;50.08;22.85;;;5.30;99.90;;;;;;5064182;28;20044;-60
2023/02/16 00:25:22;;;;;;;45.05;21.20;;;5.30;99.90;;;;;;5061963;28;20037;-58
2023/02/16 00:27:48;;;;;;;50.45;22.50;;;5.30;99.90;;;;;;5060677;28;20041;-58
2023/02/16 00:30:19;;;;;;;42.88;21.50;;;5.30;99.90;;;;;;5060794;28;20861;-60
2023/02/16 00:32:44;;;;;;;47.22;21.77;;;5.30;99.90;;;;;;5041949;28;20041;-60
2023/02/16 00:35:17;;;;;;;52.08;23.42;;;5.30;99.90;;;;;;5043722;28;20033;-58
2023/02/16 00:37:43;;;;;;;52.92;23.20;;;5.40;99.90;;;;;;5044476;28;20148;-59
2023/02/16 00:40:11;;;;;;;54.50;22.80;;;5.40;99.90;;;;;;5043811;28;20545;-59
2023/02/16 00:42:36;;;;;;;47.05;21.55;;;5.50;99.90;;;;;;5042826;28;20037;-59
2023/02/16 00:45:03;;;;;;;48.05;21.85;;;5.40;99.90;;;;;;5043742;28;20047;-60
2023/02/16 00:47:29;;;;;;;49.40;24.15;;;5.40;99.90;;;;;;5044668;28;20045;-59
2023/02/16 00:49:55;;;;;;;53.90;25.13;;;5.40;99.90;;;;;;5044113;28;20033;-58
2023/02/16 00:52:30;;;;;;;45.33;22.73;;;5.30;99.90;;;;;;5043013;28;20045;-60
2023/02/16 00:54:56;;;;;;;49.63;23.90;;;5.30;99.90;;;;;;5041433;28;20048;-59
2023/02/16 00:57:23;;;;;;;51.80;24.08;;;5.30;99.90;;;;;;5043194;28;20160;-57
2023/02/16 01:00:00;;;;;;;48.20;23.17;;;5.30;99.90;;;;;;5044941;28;20491;-58
2023/02/16 01:02:26;;;;;;;46.33;22.00;;;5.30;99.90;;;;;;5058711;28;20543;-59
2023/02/16 01:04:52;;;;;;;54.45;24.55;;;5.30;99.90;;;;;;5063561;28;20037;-58
2023/02/16 01:12:48;;;;;;;49.90;24.70;;;5.20;99.90;;;;;;5062428;28;20037;-58
2023/02/16 01:15:24;;;;;;;48.85;22.48;;;5.20;99.90;;;;;;5062464;28;20044;-58
2023/02/16 01:17:50;;;;;;;53.00;24.45;;;5.20;99.90;;;;;;5061678;28;20571;-59
2023/02/16 01:20:19;;;;;;;44.63;22.70;;;5.20;99.90;;;;;;5064192;28;20455;-57
2023/02/16 01:22:45;;;;;;;50.03;24.13;;;5.20;99.90;;;;;;5061405;28;20749;-57
2023/02/16 01:25:11;;;;;;;52.25;25.05;;;5.10;99.90;;;;;;5061602;28;20147;-59
2023/02/16 01:27:38;;;;;;;47.15;22.38;;;5.10;99.90;;;;;;5060136;28;20070;-62
2023/02/16 01:30:06;;;;;;;48.70;23.02;;;5.10;99.90;;;;;;5060823;28;20785;-58
2023/02/16 01:32:32;;;;;;;50.00;23.80;;;5.10;99.90;;;;;;5061092;28;20032;-60
2023/02/16 01:34:58;;;;;;;50.92;24.17;;;5.10;99.90;;;;;;5058309;28;20045;-59
2023/02/16 01:37:23;;;;;;;54.03;25.05;;;5.10;99.90;;;;;;5061516;28;20463;-59
2023/02/16 01:39:49;;;;;;;;;;;5.10;99.90;;;;;;5061933;28;20044;-60
2023/02/16 01:42:33;;;;;;;51.47;24.83;;;5.00;99.90;;;;;;5063731;28;19924;-57
2023/02/16 01:45:08;;;;;;;51.30;23.42;;;5.00;99.90;;;;;;5060392;28;20045;-60
2023/02/16 01:47:46;;;;;;;45.80;22.05;;;5.00;99.90;;;;;;5063514;28;20460;-60
2023/02/16 01:50:16;;;;;;;52.42;25.27;;;5.00;99.90;;;;;;5059634;28;20083;-59
2023/02/16 01:52:45;;;;;;;51.20;24.33;;;4.90;99.90;;;;;;5062452;28;20068;-59
2023/02/16 01:55:25;;;;;;;48.38;23.83;;;4.90;99.90;;;;;;5058778;28;20586;-60
2023/02/16 01:58:04;;;;;;;54.22;24.92;;;4.90;99.90;;;;;;5060096;28;20044;-58
2023/02/16 02:00:48;;;;;;;48.78;23.48;;;4.90;99.90;;;;;;5058728;28;20515;-57
2023/02/16 02:06:08;;;;;;;48.50;23.38;;;4.90;99.90;;;;;;5059799;28;20045;-60
2023/02/16 02:08:50;;;;;;;53.47;23.15;;;4.90;99.90;;;;;;5060049;28;20037;-60
2023/02/16 02:11:31;;;;;;;54.30;22.13;;;4.90;99.90;;;;;;5059793;28;20131;-60
2023/02/16 02:14:11;;;;;;;48.17;22.27;;;4.90;99.90;;;;;;5061877;28;20048;-60
2023/02/16 02:16:38;;;;;;;44.78;22.67;;;4.90;99.90;;;;;;5058490;28;20044;-59
2023/02/16 02:19:03;;;;;;;51.13;23.55;;;4.80;99.90;;;;;;5063021;28;20101;-60
2023/02/16 02:25:10;;;;;;;50.65;22.92;;;4.80;99.90;;;;;;5041493;28;20072;-59
2023/02/16 02:28:01;;;;;;;51.13;22.67;;;4.80;99.90;;;;;;5058551;28;20085;-61
2023/02/16 02:31:00;;;;;;;46.55;22.65;;;4.70;99.90;;;;;;5056629;28;20055;-60
2023/02/16 02:34:07;;;;;;;51.85;22.75;;;4.70;99.90;;;;;;5059621;28;20048;-58
2023/02/16 02:36:42;;;;;;;47.95;22.98;;;4.70;99.90;;;;;;5059336;28;20036;-58
2023/02/16 02:39:25;;;;;;;46.15;22.98;;;4.60;99.90;;;;;;5062271;28;20056;-61
2023/02/16 02:42:13;;;;;;;44.67;22.35;;;4.50;99.90;;;;;;5057724;28;20036;-61
2023/02/16 02:44:45;;;;;;;46.33;21.88;;;4.50;99.90;;;;;;5063395;28;20094;-60
2023/02/16 02:47:11;;;;;;;51.97;23.23;;;4.50;99.90;;;;;;5060475;28;20067;-60
2023/02/16 02:49:37;;;;;;;48.83;23.33;;;4.40;99.90;;;;;;5061901;28;21474;-60
2023/02/16 02:52:02;;;;;;;45.78;21.15;;;4.40;99.90;;;;;;5061495;28;20036;-60
2023/02/16 03:03:29;;;;;;;48.60;23.05;;;4.40;99.90;;;;;;5064217;28;20064;-59
2023/02/16 03:06:31;;;;;;;45.72;23.05;;;4.50;99.90;;;;;;5060902;28;20080;-60
2023/02/16 03:09:04;;;;;;;41.95;20.52;;;4.50;99.90;;;;;;5056456;28;20614;-60
2023/02/16 03:14:24;;;;;;;40.95;20.45;;;4.40;99.90;;;;;;5061554;28;20037;-58
2023/02/16 03:31:03;;;;;;;42.30;19.83;;;4.30;99.90;;;;;;5057544;28;20032;-60
2023/02/16 03:33:29;;;;;;;45.88;21.23;;;4.30;99.90;;;;;;5059017;28;20124;-59
2023/02/16 03:35:56;;;;;;;45.40;20.00;;;4.30;99.90;;;;;;5060290;28;20163;-60
2023/02/16 03:38:21;;;;;;;45.45;21.10;;;4.30;99.90;;;;;;5060271;28;20054;-59
2023/02/16 03:40:49;;;;;;;44.15;22.30;;;4.30;99.90;;;;;;5060506;28;20485;-58
2023/02/16 03:43:15;;;;;;;45.05;18.90;;;4.30;99.90;;;;;;5058914;28;20044;-58
2023/02/16 03:45:43;;;;;;;41.00;18.67;;;4.30;99.90;;;;;;5060448;28;20052;-54
2023/02/16 03:48:09;;;;;;;43.78;19.95;;;4.30;99.90;;;;;;5060872;28;20101;-59
2023/02/16 03:50:35;;;;;;;42.67;19.58;;;4.20;99.90;;;;;;5060177;28;20570;-57
2023/02/16 03:53:09;;;;;;;40.00;19.63;;;4.20;99.90;;;;;;5060771;28;20041;-58
2023/02/16 03:55:46;;;;;;;41.45;18.35;;;4.20;99.90;;;;;;5063989;28;20029;-61
2023/02/16 03:58:14;;;;;;;40.30;20.23;;;4.20;99.90;;;;;;5062811;28;20032;-57
2023/02/16 04:00:40;;;;;;;42.90;20.10;;;4.20;99.90;;;;;;5066427;28;20051;-61
2023/02/16 04:03:07;;;;;;;39.47;17.92;;;4.20;99.90;;;;;;5063522;28;20036;-60
2023/02/16 04:05:33;;;;;;;40.25;18.05;;;4.20;99.90;;;;;;5063301;28;20047;-61
2023/02/16 04:07:59;;;;;;;37.22;17.10;;;4.20;99.90;;;;;;5063640;28;20065;-59
2023/02/16 04:10:24;;;;;;;33.72;17.20;;;4.10;99.90;;;;;;5064802;28;20067;-61
2023/02/16 04:12:50;;;;;;;;;;;4.10;99.90;;;;;;5063855;28;20051;-60
2023/02/16 04:15:21;;;;;;;30.75;14.18;;;4.10;99.90;;;;;;5063052;28;19970;-60
2023/02/16 04:17:47;;;;;;;32.72;15.10;;;4.10;99.90;;;;;;5063382;28;20667;-59
2023/02/16 04:20:16;;;;;;;28.40;13.45;;;4.10;99.90;;;;;;5063546;28;20040;-61
2023/02/16 04:22:42;;;;;;;29.60;12.88;;;4.10;99.90;;;;;;5061487;28;20036;-59
2023/02/16 04:25:08;;;;;;;29.38;13.60;;;4.10;99.90;;;;;;5063836;28;20048;-59
2023/02/16 04:27:34;;;;;;;32.70;14.18;;;4.10;99.90;;;;;;5062670;28;20044;-61
2023/02/16 04:30:00;;;;;;;31.27;14.18;;;4.10;99.90;;;;;;5062921;28;20068;-60
2023/02/16 04:32:26;;;;;;;32.85;13.65;;;4.10;99.90;;;;;;5061820;28;20119;-57
2023/02/16 04:34:51;;;;;;;30.98;14.30;;;4.00;99.90;;;;;;5063238;28;20039;-61
2023/02/16 04:37:17;;;;;;;31.20;13.68;;;4.10;99.90;;;;;;5062417;28;20043;-60
2023/02/16 04:39:43;;;;;;;31.90;13.25;;;4.00;99.90;;;;;;5065158;28;20025;-60
2023/02/16 04:42:09;;;;;;;25.40;12.65;;;4.00;99.90;;;;;;5063077;28;20028;-61
2023/02/16 04:44:34;;;;;;;29.65;13.73;;;4.00;99.90;;;;;;5063002;28;20119;-59
2023/02/16 04:46:59;;;;;;;31.80;13.25;;;3.90;99.90;;;;;;5062857;28;20029;-59
2023/02/16 04:49:25;;;;;;;28.55;12.48;;;3.90;99.90;;;;;;5063420;28;20045;-57
2023/02/16 04:51:51;;;;;;;26.85;12.68;;;3.90;99.90;;;;;;5060576;28;20064;-61
2023/02/16 04:54:16;;;;;;;35.70;13.35;;;3.80;99.90;;;;;;5059890;28;20046;-61
2023/02/16 04:56:44;;;;;;;27.77;11.93;;;3.80;99.90;;;;;;5062264;28;20119;-59
2023/02/16 04:59:09;;;;;;;24.95;11.60;;;3.80;99.90;;;;;;5065680;28;20047;-59
2023/02/16 05:01:35;;;;;;;24.58;12.10;;;3.70;99.90;;;;;;5060143;28;20044;-60
2023/02/16 05:04:01;;;;;;;24.52;10.90;;;3.70;99.90;;;;;;5064485;28;20033;-58
2023/02/16 05:06:26;;;;;;;23.98;11.13;;;3.70;99.90;;;;;;5063278;28;20510;-61
2023/02/16 05:08:52;;;;;;;22.17;10.70;;;3.70;99.90;;;;;;5063646;28;20045;-61
2023/02/16 05:16:46;;;;;;;20.17;9.57;;;3.60;99.90;;;;;;5060373;28;20499;-59
2023/02/16 05:19:12;;;;;;;19.00;9.20;;;3.60;99.90;;;;;;5064146;28;20063;-58
2023/02/16 05:21:38;;;;;;;22.92;10.60;;;3.50;99.90;;;;;;5060849;28;20020;-61
2023/02/16 05:24:06;;;;;;;18.33;8.93;;;3.50;99.90;;;;;;5062931;28;20155;-60
2023/02/16 05:26:33;;;;;;;19.30;8.75;;;3.40;99.90;;;;;;5061891;28;20063;-61
2023/02/16 05:28:59;;;;;;;26.20;10.25;;;3.40;99.90;;;;;;5061888;28;20053;-61
2023/02/16 05:31:25;;;;;;;20.48;9.02;;;3.40;99.90;;;;;;5058813;28;20067;-60
2023/02/16 05:33:52;;;;;;;18.92;8.68;;;3.40;99.90;;;;;;5062216;28;20060;-60
2023/02/16 05:36:18;;;;;;;24.17;9.52;;;3.40;99.90;;;;;;5059824;28;20041;-59
2023/02/16 05:38:44;;;;;;;21.02;7.97;;;3.30;99.90;;;;;;5063181;28;20056;-61
2023/02/16 05:41:09;;;;;;;17.48;8.48;;;3.30;99.90;;;;;;5062483;28;20039;-60
2023/02/16 05:43:35;;;;;;;16.30;7.85;;;3.30;99.90;;;;;;5062407;28;20075;-61
2023/02/16 05:46:09;;;;;;;17.50;7.90;;;3.30;99.90;;;;;;5062425;28;20500;-60
2023/02/16 05:48:35;;;;;;;20.05;8.40;;;3.20;99.90;;;;;;5062271;28;20087;-60
2023/02/16 05:51:01;;;;;;;17.60;8.15;;;3.20;99.90;;;;;;5062236;28;20072;-59
2023/02/16 05:53:26;;;;;;;22.08;7.50;;;3.20;99.90;;;;;;5062934;28;20041;-60
2023/02/16 05:55:52;;;;;;;14.77;7.07;;;3.30;99.90;;;;;;5062979;28;20043;-57
2023/02/16 05:58:18;;;;;;;17.27;7.60;;;3.30;99.90;;;;;;5061989;28;20398;-59
2023/02/16 06:00:43;;;;;;;19.02;7.82;;;3.30;99.90;;;;;;5058947;28;20032;-57
2023/02/16 06:03:09;;;;;;;15.75;7.75;;;3.30;99.90;;;;;;5061904;28;20423;-59
2023/02/16 06:05:34;;;;;;;16.00;7.15;;;3.30;99.90;;;;;;5060531;28;20488;-57
2023/02/16 06:08:00;;;;;;;17.17;8.10;;;3.30;99.90;;;;;;5061580;28;20123;-61
2023/02/16 06:10:25;;;;;;;17.00;7.13;;;3.40;99.90;;;;;;5062165;28;20041;-56
2023/02/16 06:12:51;;;;;;;15.95;6.85;;;3.40;99.90;;;;;;5058085;28;20068;-60
2023/02/16 06:15:17;;;;;;;18.85;7.55;;;3.40;99.90;;;;;;5060221;28;20701;-60
2023/02/16 06:17:43;;;;;;;15.55;7.63;;;3.40;99.90;;;;;;5061576;28;20649;-58
2023/02/16 06:20:09;;;;;;;16.98;7.53;;;3.40;99.90;;;;;;5060802;28;20087;-61
2023/02/16 06:22:35;;;;;;;18.08;7.22;;;3.40;99.90;;;;;;5062303;28;20132;-59
2023/02/16 06:25:01;;;;;;;15.73;7.53;;;3.40;99.90;;;;;;5059998;28;20119;-61
2023/02/16 06:27:27;;;;;;;14.60;7.55;;;3.50;99.90;;;;;;5059455;28;20045;-60
2023/02/16 06:29:53;;;;;;;13.35;6.82;;;3.40;99.90;;;;;;5062921;28;20673;-60
2023/02/16 06:32:19;;;;;;;15.63;6.95;;;3.40;99.90;;;;;;5058690;28;20143;-59
2023/02/16 06:34:45;;;;;;;13.98;6.40;;;3.40;99.90;;;;;;5062213;28;20532;-59
2023/02/16 06:37:10;;;;;;;15.48;6.75;;;3.40;99.90;;;;;;5059388;28;20116;-60
2023/02/16 06:39:36;;;;;;;13.25;6.47;;;3.40;99.90;;;;;;5063690;28;20063;-60
2023/02/16 06:42:02;;;;;;;13.50;5.82;;;3.40;99.90;;;;;;5060516;28;20032;-60
2023/02/16 06:44:27;;;;;;;13.05;6.05;;;3.40;99.90;;;;;;5062252;28;20044;-61
2023/02/16 06:46:53;;;;;;;11.95;6.07;;;3.50;99.90;;;;;;5059727;28;20048;-60
2023/02/16 06:49:20;;;;;;;16.08;6.90;;;3.60;99.90;;;;;;5061590;28;20094;-61
2023/02/16 06:51:46;;;;;;;12.57;6.40;;;3.60;99.90;;;;;;5060751;28;20103;-60
2023/02/16 06:54:13;;;;;;;16.05;6.28;;;3.70;99.90;;;;;;5062180;28;20036;-60
2023/02/16 06:56:39;;;;;;;15.15;7.60;;;3.70;99.90;;;;;;5060065;28;20044;-60
2023/02/16 06:59:05;;;;;;;11.63;5.78;;;3.70;99.90;;;;;;5060634;28;20036;-58
2023/02/16 07:01:31;;;;;;;14.90;6.68;;;3.80;99.90;;;;;;5058068;28;20045;-60
2023/02/16 07:03:57;;;;;;;15.00;7.18;;;3.80;99.90;;;;;;5061967;28;20403;-56
2023/02/16 07:06:25;;;;;;;13.55;6.72;;;3.90;99.90;;;;;;5060137;28;20504;-58
2023/02/16 07:08:51;;;;;;;13.98;7.22;;;3.90;99.90;;;;;;5060863;28;20066;-57
2023/02/16 07:11:18;;;;;;;16.33;7.30;;;4.00;99.90;;;;;;5061913;28;20043;-58
2023/02/16 07:13:44;;;;;;;15.90;6.95;;;4.00;99.90;;;;;;5057099;28;20040;-61
2023/02/16 07:16:10;;;;;;;16.08;7.82;;;4.10;99.90;;;;;;5060103;28;20059;-60
2023/02/16 07:18:36;;;;;;;17.13;6.97;;;4.10;99.90;;;;;;5061839;28;20040;-58
2023/02/16 07:21:01;;;;;;;17.88;7.47;;;4.10;99.90;;;;;;5060008;28;20396;-59
2023/02/16 07:23:27;;;;;;;;;;;4.10;99.90;;;;;;5060513;28;20045;-59
2023/02/16 07:25:53;;;;;;;15.45;7.43;;;4.20;99.90;;;;;;5059887;28;19921;-60
2023/02/16 07:28:18;;;;;;;14.32;7.55;;;4.20;99.90;;;;;;5060995;28;20381;-60
2023/02/16 07:30:44;;;;;;;17.85;7.78;;;4.30;99.90;;;;;;5061854;28;20032;-60
2023/02/16 07:33:11;;;;;;;20.35;9.05;;;4.30;99.90;;;;;;5064802;28;20024;-59
2023/02/16 07:35:37;;;;;;;19.50;8.00;;;4.40;99.90;;;;;;5064808;28;20075;-58
2023/02/16 07:38:04;;;;;;;18.30;8.50;;;4.70;99.90;;;;;;5064157;28;20078;-61
2023/02/16 07:40:30;;;;;;;20.95;8.90;;;5.10;99.90;;;;;;5065301;28;20094;-61
2023/02/16 07:42:59;;;;;;;21.48;9.05;;;5.20;99.90;;;;;;5062644;28;20040;-61
2023/02/16 07:45:25;;;;;;;18.30;8.88;;;5.30;99.90;;;;;;5060343;28;20441;-59
2023/02/16 07:47:50;;;;;;;16.63;8.02;;;5.20;99.90;;;;;;5064133;28;20040;-60
2023/02/16 07:50:16;;;;;;;17.45;7.95;;;5.30;99.90;;;;;;5062823;28;20035;-60
2023/02/16 07:52:42;;;;;;;;;;;5.40;99.90;;;;;;5063005;28;20060;-60
2023/02/16 07:55:08;;;;;;;19.77;8.90;;;5.70;99.90;;;;;;5062988;28;19925;-58
2023/02/16 07:57:36;;;;;;;19.17;7.82;;;5.80;99.90;;;;;;5063568;28;20052;-60
2023/02/16 08:00:04;;;;;;;16.50;8.30;;;5.80;99.90;;;;;;5064819;28;20036;-60
2023/02/16 08:02:29;;;;;;;15.75;8.43;;;5.90;99.90;;;;;;5062679;28;20044;-59
2023/02/16 08:04:55;;;;;;;16.90;7.75;;;6.10;99.90;;;;;;5063699;28;20037;-58
2023/02/16 08:07:21;;;;;;;;;;;6.30;99.90;;;;;;5062684;28;20056;-58
2023/02/16 08:09:47;;;;;;;16.02;7.80;;;6.50;99.90;;;;;;5064665;28;19920;-59
2023/02/16 08:12:13;;;;;;;;;;;6.70;99.90;;;;;;5059717;28;20047;-61
2023/02/16 08:14:39;;;;;;;18.48;8.25;;;6.90;99.90;;;;;;5063445;28;19931;-60
2023/02/16 08:17:05;;;;;;;;;;;7.20;99.60;;;;;;5063108;28;20036;-59
2023/02/16 08:19:31;;;;;;;19.50;8.75;;;7.30;97.60;;;;;;5066309;28;19924;-58
2023/02/16 08:21:59;;;;;;;20.42;9.35;;;7.30;97.90;;;;;;5063174;28;20043;-57
2023/02/16 08:24:25;;;;;;;16.65;8.52;;;7.30;99.20;;;;;;5064584;28;20036;-61
2023/02/16 08:26:52;;;;;;;;;;;7.30;98.50;;;;;;5065153;28;20043;-60
2023/02/16 08:29:19;;;;;;;14.13;7.65;;;7.50;98.10;;;;;;5065998;28;20018;-60
2023/02/16 08:31:46;;;;;;;19.40;8.85;;;7.60;98.30;;;;;;5061901;28;20124;-61
2023/02/16 08:34:14;;;;;;;15.45;8.02;;;7.80;96.80;;;;;;5065581;28;20043;-60
2023/02/16 08:36:43;;;;;;;20.77;7.70;;;8.00;97.10;;;;;;5062722;28;20040;-61
2023/02/16 08:39:17;;;;;;;18.38;8.48;;;8.00;95.60;;;;;;5064451;28;20146;-60
2023/02/16 08:41:45;;;;;;;16.85;7.13;;;8.10;95.70;;;;;;5061553;28;20041;-59
2023/02/16 08:44:14;;;;;;;14.38;7.35;;;8.20;95.90;;;;;;5064143;28;20113;-58
2023/02/16 08:46:41;;;;;;;19.25;8.98;;;8.30;94.90;;;;;;5064649;28;20045;-60
2023/02/16 08:49:08;;;;;;;22.80;9.18;;;8.40;94.30;;;;;;5065915;28;20072;-61
2023/02/16 08:51:37;;;;;;;21.65;8.70;;;8.40;95.00;;;;;;5063030;28;20033;-60
2023/02/16 08:54:07;;;;;;;22.35;9.68;;;8.50;95.30;;;;;;5065219;28;20097;-61
2023/02/16 08:56:33;;;;;;;20.73;9.52;;;8.50;95.00;;;;;;5064114;28;20045;-61
2023/02/16 08:58:59;;;;;;;16.63;8.00;;;8.50;94.00;;;;;;5063240;28;20524;-60
2023/02/16 09:01:25;;;;;;;;;;;8.50;94.10;;;;;;5062563;28;20040;-60
2023/02/16 09:03:51;;;;;;;21.27;10.18;;;8.60;93.30;;;;;;5063052;28;20429;-58
2023/02/16 09:06:21;;;;;;;17.48;8.20;;;8.70;93.70;;;;;;5058612;28;20095;-59
2023/02/16 09:08:51;;;;;;;18.83;9.05;;;8.70;93.40;;;;;;5059979;28;20186;-60
2023/02/16 09:11:17;;;;;;;20.42;8.48;;;8.70;93.10;;;;;;5062973;28;20052;-59
2023/02/16 09:13:43;;;;;;;;;;;8.70;92.70;;;;;;5062479;28;20040;-59
2023/02/16 09:16:15;;;;;;;23.98;8.32;;;8.70;92.20;;;;;;5061416;28;19927;-61
2023/02/16 09:18:43;;;;;;;18.02;8.50;;;8.70;92.20;;;;;;5061695;28;20048;-59
2023/02/16 09:21:20;;;;;;;21.38;8.23;;;8.70;92.20;;;;;;5062632;28;20073;-60
2023/02/16 09:23:47;;;;;;;22.92;7.78;;;8.80;92.50;;;;;;5065206;28;20032;-61
2023/02/16 09:26:15;;;;;;;19.67;8.00;;;8.80;92.50;;;;;;5061502;28;20048;-58
2023/02/16 09:28:42;;;;;;;16.50;7.15;;;8.80;92.20;;;;;;5063829;28;20086;-62
2023/02/16 09:31:29;;;;;;;19.45;8.48;;;8.90;92.10;;;;;;5058794;28;20032;-61
2023/02/16 09:34:17;;;;;;;17.13;7.75;;;9.00;91.70;;;;;;5060073;28;20071;-59
2023/02/16 09:36:43;;;;;;;18.33;9.30;;;9.10;91.60;;;;;;5061578;28;20048;-59
2023/02/16 09:39:09;;;;;;;;;;;9.20;91.70;;;;;;5061960;28;20058;-55
2023/02/16 09:41:58;;;;;;;18.48;8.75;;;9.20;91.80;;;;;;5062864;28;19927;-59
2023/02/16 09:44:49;;;;;;;19.83;8.52;;;9.20;91.90;;;;;;5062777;28;20048;-59
2023/02/16 09:47:19;;;;;;;17.75;7.65;;;9.30;91.70;;;;;;5060581;28;20062;-58
2023/02/16 09:49:47;;;;;;;16.23;7.88;;;9.30;91.40;;;;;;5062857;28;20043;-58
2023/02/16 09:52:12;;;;;;;16.20;8.05;;;9.30;91.80;;;;;;5061331;28;20037;-60
2023/02/16 09:54:44;;;;;;;;;;;9.40;91.40;;;;;;5061302;28;20039;-58
2023/02/16 09:57:20;;;;;;;16.45;8.15;;;9.50;91.80;;;;;;5059954;28;19920;-54
2023/02/16 09:59:55;;;;;;;18.40;9.38;;;9.60;91.50;;;;;;5063186;28;20043;-60
2023/02/16 10:02:41;;;;;;;19.05;8.82;;;9.70;91.20;;;;;;5059222;28;20041;-58
2023/02/16 10:05:12;;;;;;;25.02;9.50;;;9.70;91.60;;;;;;5059373;28;20111;-61
2023/02/16 10:07:45;;;;;;;19.92;8.63;;;9.70;91.80;;;;;;5061192;28;20041;-60
2023/02/16 10:10:17;;;;;;;16.65;7.88;;;9.70;91.60;;;;;;5063236;28;20043;-60
2023/02/16 10:12:53;;;;;;;18.13;8.27;;;9.70;91.80;;;;;;5062901;28;20116;-60
2023/02/16 10:15:25;;;;;;;22.25;7.82;;;9.70;91.70;;;;;;5060589;28;20097;-61
2023/02/16 10:17:58;;;;;;;17.67;8.23;;;9.70;92.10;;;;;;5058722;28;20057;-60
2023/02/16 10:20:36;;;;;;;16.90;7.90;;;9.70;92.40;;;;;;5060511;28;20036;-61
2023/02/16 10:23:21;;;;;;;17.20;8.77;;;9.80;92.10;;;;;;5061402;28;20492;-60
2023/02/16 10:26:07;;;;;;;15.07;7.63;;;9.90;92.40;;;;;;5060068;28;20044;-60
2023/02/16 10:28:54;;;;;;;16.45;8.20;;;10.00;92.30;;;;;;5061545;28;20040;-60
2023/02/16 10:31:20;;;;;;;;;;;10.30;92.20;;;;;;5059874;28;20112;-58
2023/02/16 10:33:59;;;;;;;13.95;7.45;;;10.40;91.80;;;;;;5062099;28;20003;-58
2023/02/16 10:36:52;;;;;;;24.35;8.32;;;10.60;91.70;;;;;;5059567;28;20045;-59
2023/02/16 10:39:42;;;;;;;17.02;7.97;;;10.70;91.10;;;;;;5061199;28;20032;-61
2023/02/16 10:42:19;;;;;;;21.00;8.13;;;10.80;90.90;;;;;;5058442;28;20036;-60
2023/02/16 10:44:55;;;;;;;16.60;7.75;;;10.70;90.80;;;;;;5062147;28;20048;-61
2023/02/16 10:47:39;;;;;;;15.07;7.07;;;10.70;90.60;;;;;;5060202;28;20047;-59
2023/02/16 10:50:06;;;;;;;19.52;8.15;;;10.70;90.90;;;;;;5060186;28;20036;-60
2023/02/16 10:52:38;;;;;;;13.02;7.05;;;10.80;90.40;;;;;;5060506;28;20044;-60
2023/02/16 10:55:04;;;;;;;16.23;7.38;;;10.90;90.40;;;;;;5059992;28;20432;-61
2023/02/16 10:57:31;;;;;;;15.00;7.57;;;10.90;90.00;;;;;;5058616;28;20101;-56
2023/02/16 11:00:05;;;;;;;14.23;7.03;;;11.00;89.00;;;;;;5061222;28;20066;-58
2023/02/16 11:02:43;;;;;;;14.95;6.68;;;11.10;89.80;;;;;;5059568;28;20036;-61
2023/02/16 11:05:29;;;;;;;15.55;6.32;;;11.40;88.90;;;;;;5060822;28;20066;-61
2023/02/16 11:08:00;;;;;;;15.85;6.97;;;11.60;87.30;;;;;;5058965;28;20044;-59
2023/02/16 11:10:33;;;;;;;14.55;6.00;;;11.70;86.40;;;;;;5060182;28;20052;-59
2023/02/16 11:12:59;;;;;;;15.20;7.10;;;11.70;87.70;;;;;;5058187;28;20037;-60
2023/02/16 11:15:25;;;;;;;;;;;11.70;87.20;;;;;;5060676;28;20497;-60
2023/02/16 11:17:59;;;;;;;17.48;7.97;;;11.70;87.30;;;;;;5061542;28;20595;-63
2023/02/16 11:20:31;;;;;;;19.10;8.57;;;11.70;89.40;;;;;;5060796;28;20043;-61
2023/02/16 11:23:21;;;;;;;18.77;8.45;;;11.80;89.90;;;;;;5056776;28;20076;-60
2023/02/16 11:26:01;;;;;;;15.65;8.50;;;11.90;90.00;;;;;;5057198;28;20052;-60
2023/02/16 11:28:31;;;;;;;19.98;8.18;;;11.90;90.20;;;;;;5059890;28;20049;-58
2023/02/16 11:31:14;;;;;;;18.92;8.30;;;11.90;90.00;;;;;;5058326;28;20616;-57
2023/02/16 11:33:41;;;;;;;14.68;7.72;;;11.80;90.00;;;;;;5059947;28;20042;-60
2023/02/16 11:36:27;;;;;;;15.82;7.95;;;11.80;90.20;;;;;;5059896;28;20144;-59
2023/02/16 11:39:13;;;;;;;18.77;8.35;;;11.80;90.30;;;;;;5059680;28;20060;-61
2023/02/16 11:41:53;;;;;;;16.40;8.20;;;11.60;90.50;;;;;;5072654;28;20032;-59
2023/02/16 11:44:31;;;;;;;19.58;8.20;;;11.60;90.70;;;;;;5061584;28;20038;-58
2023/02/16 11:46:59;;;;;;;16.80;7.75;;;11.60;90.80;;;;;;5059297;28;20044;-60
2023/02/16 11:49:37;;;;;;;13.23;7.93;;;11.50;91.00;;;;;;5062282;28;20049;-60
2023/02/16 11:52:32;;;;;;;16.65;7.80;;;11.30;90.60;;;;;;5061168;28;20078;-59
2023/02/16 11:55:00;;;;;;;14.07;7.78;;;11.40;91.10;;;;;;5050566;28;20060;-60
2023/02/16 11:57:27;;;;;;;14.48;7.95;;;11.40;91.50;;;;;;5059860;28;20044;-59
2023/02/16 11:59:54;;;;;;;19.73;9.65;;;11.40;91.60;;;;;;5060662;28;20040;-59
2023/02/16 12:02:45;;;;;;;20.00;9.65;;;11.20;92.40;;;;;;5059868;28;20140;-58
2023/02/16 12:05:41;;;;;;;17.98;9.02;;;11.00;92.90;;;;;;5059044;28;20051;-60
2023/02/16 12:08:15;;;;;;;16.60;9.38;;;11.10;92.80;;;;;;5059274;28;20094;-59
2023/02/16 12:11:02;;;;;;;16.83;9.80;;;11.00;93.00;;;;;;5060345;28;20037;-58
2023/02/16 12:13:50;;;;;;;;;;;10.90;93.60;;;;;;5057993;28;20048;-60
2023/02/16 12:16:25;;;;;;;17.95;10.38;;;10.90;94.20;;;;;;5062961;28;19916;-59
2023/02/16 12:19:13;;;;;;;18.43;10.00;;;10.80;94.30;;;;;;5063348;28;20045;-60
2023/02/16 12:21:44;;;;;;;20.38;11.25;;;10.80;93.90;;;;;;5061298;28;20298;-60
2023/02/16 12:24:34;;;;;;;23.75;11.20;;;10.60;95.20;;;;;;5063586;28;20075;-59
2023/02/16 12:27:12;;;;;;;30.05;12.82;;;10.40;95.50;;;;;;5063320;28;20148;-60
2023/02/16 12:29:52;;;;;;;24.85;12.55;;;10.10;97.00;;;;;;5064229;28;20040;-57
2023/02/16 12:32:30;;;;;;;26.33;14.57;;;10.10;97.30;;;;;;5061132;28;20040;-60
2023/02/16 12:35:11;;;;;;;28.15;15.65;;;10.10;98.00;;;;;;5063509;28;20044;-60
2023/02/16 12:37:46;;;;;;;27.58;15.75;;;10.00;98.50;;;;;;5062352;28;20036;-60
2023/02/16 12:40:38;;;;;;;32.08;16.80;;;9.90;99.00;;;;;;5064202;28;20610;-60
2023/02/16 12:43:15;;;;;;;26.52;15.65;;;9.80;99.30;;;;;;5046984;28;20049;-60
2023/02/16 12:45:43;;;;;;;28.45;15.88;;;9.90;99.40;;;;;;5063769;28;20044;-61
2023/02/16 12:48:46;;;;;;;27.38;15.93;;;9.90;99.70;;;;;;5061979;28;20131;-61
2023/02/16 12:51:24;;;;;;;27.95;15.02;;;9.90;99.90;;;;;;5063703;28;20619;-60
2023/02/16 12:53:59;;;;;;;26.10;15.10;;;9.90;99.90;;;;;;5062402;28;20036;-61
2023/02/16 12:56:39;;;;;;;27.40;15.80;;;9.90;99.90;;;;;;5061298;28;20041;-61
2023/02/16 12:59:46;;;;;;;25.13;14.15;;;9.90;99.90;;;;;;5063043;28;20094;-60
2023/02/16 13:02:41;;;;;;;26.08;14.90;;;10.00;99.90;;;;;;5060593;28;20097;-58
2023/02/16 13:05:17;;;;;;;28.48;14.63;;;10.00;99.90;;;;;;5056891;28;20044;-59
2023/02/16 13:07:48;;;;;;;25.65;13.45;;;10.00;99.90;;;;;;5062058;28;20041;-59
2023/02/16 13:10:29;;;;;;;27.13;14.65;;;10.20;99.90;;;;;;5060267;28;20067;-60
2023/02/16 13:13:01;;;;;;;28.23;15.13;;;10.20;99.90;;;;;;5060587;28;20060;-61
2023/02/16 13:15:40;;;;;;;23.42;13.48;;;10.20;99.90;;;;;;5061087;28;20504;-60
2023/02/16 13:18:21;;;;;;;27.98;14.60;;;10.30;99.90;;;;;;5061686;28;20087;-60
2023/02/16 13:20:51;;;;;;;24.45;13.93;;;10.20;99.90;;;;;;5061475;28;20050;-61
2023/02/16 13:23:47;;;;;;;26.17;14.20;;;10.20;99.90;;;;;;5062246;28;20111;-61
2023/02/16 13:26:21;;;;;;;28.42;14.10;;;10.20;99.90;;;;;;5062934;28;20399;-58
2023/02/16 13:29:21;;;;;;;26.10;14.27;;;10.10;99.90;;;;;;5062284;28;20040;-57
2023/02/16 13:32:14;;;;;;;25.20;14.77;;;10.10;99.90;;;;;;5057158;28;20049;-57
2023/02/16 13:35:20;;;;;;;27.98;14.98;;;10.10;99.90;;;;;;5063141;28;20059;-59
2023/02/16 13:38:01;;;;;;;31.08;14.75;;;10.10;99.90;;;;;;5061931;28;20055;-61
2023/02/16 13:40:39;;;;;;;25.60;14.40;;;10.10;99.90;;;;;;5060727;28;20048;-61
2023/02/16 13:43:22;;;;;;;21.48;13.45;;;10.10;99.90;;;;;;5062278;28;20047;-61
2023/02/16 13:45:52;;;;;;;40.70;15.25;;;10.10;99.90;;;;;;5058099;28;20044;-60
2023/02/16 13:48:24;;;;;;;22.38;13.23;;;10.00;99.90;;;;;;5062883;28;20048;-61
2023/02/16 13:51:03;;;;;;;25.65;13.63;;;10.00;99.90;;;;;;5062332;28;20403;-61
2023/02/16 13:53:40;;;;;;;26.52;13.95;;;9.90;99.90;;;;;;5061412;28;20090;-58